sensor_id;sensor_type;location;lat;lon;timestamp;pressure;altitude;pressure_sealevel;temperature;humidity
51053;BME280;37093;37.716;-122.060;2023-10-19T00:00:15;99567.48;;;33.55;23.62
51053;BME280;37093;37.716;-122.060;2023-10-19T00:02:43;99568.15;;;33.71;24.10
51053;BME280;37093;37.716;-122.060;2023-10-19T00:05:11;99569.93;;;33.28;23.37
51053;BME280;37093;37.716;-122.060;2023-10-19T00:07:40;99567.96;;;33.39;23.17
51053;BME280;37093;37.716;-122.060;2023-10-19T00:10:09;99569.39;;;33.43;23.96
51053;BME280;37093;37.716;-122.060;2023-10-19T00:12:37;99570.04;;;33.53;23.92
51053;BME280;37093;37.716;-122.060;2023-10-19T00:15:07;99567.13;;;33.16;23.50
51053;BME280;37093;37.716;-122.060;2023-10-19T00:17:35;99566.18;;;33.34;23.91
51053;BME280;37093;37.716;-122.060;2023-10-19T00:20:05;99562.83;;;33.48;22.66
51053;BME280;37093;37.716;-122.060;2023-10-19T00:22:34;99567.96;;;33.21;22.90
51053;BME280;37093;37.716;-122.060;2023-10-19T00:25:03;99566.68;;;33.06;23.54
51053;BME280;37093;37.716;-122.060;2023-10-19T00:27:31;99565.43;;;32.81;23.31
51053;BME280;37093;37.716;-122.060;2023-10-19T00:29:59;99564.99;;;32.95;23.65
51053;BME280;37093;37.716;-122.060;2023-10-19T00:32:28;99561.84;;;32.77;23.12
51053;BME280;37093;37.716;-122.060;2023-10-19T00:34:56;99559.36;;;32.55;23.06
51053;BME280;37093;37.716;-122.060;2023-10-19T00:37:25;99561.68;;;33.04;23.71
51053;BME280;37093;37.716;-122.060;2023-10-19T00:39:55;99566.94;;;32.59;23.25
51053;BME280;37093;37.716;-122.060;2023-10-19T00:42:24;99564.93;;;32.60;23.75
51053;BME280;37093;37.716;-122.060;2023-10-19T00:44:52;99564.99;;;32.79;24.26
51053;BME280;37093;37.716;-122.060;2023-10-19T00:47:20;99569.53;;;33.05;23.84
51053;BME280;37093;37.716;-122.060;2023-10-19T00:49:49;99567.78;;;33.18;23.46
51053;BME280;37093;37.716;-122.060;2023-10-19T00:52:18;99571.07;;;32.59;24.01
51053;BME280;37093;37.716;-122.060;2023-10-19T00:54:47;99573.33;;;32.73;24.15
51053;BME280;37093;37.716;-122.060;2023-10-19T00:57:17;99573.80;;;32.61;24.04
51053;BME280;37093;37.716;-122.060;2023-10-19T00:59:47;99574.20;;;32.45;24.09
51053;BME280;37093;37.716;-122.060;2023-10-19T01:02:16;99576.13;;;31.89;24.17
51053;BME280;37093;37.716;-122.060;2023-10-19T01:04:44;99574.79;;;32.23;24.27
51053;BME280;37093;37.716;-122.060;2023-10-19T01:07:13;99575.79;;;31.48;24.58
51053;BME280;37093;37.716;-122.060;2023-10-19T01:09:42;99575.31;;;32.10;23.83
51053;BME280;37093;37.716;-122.060;2023-10-19T01:12:11;99576.21;;;31.77;23.89
51053;BME280;37093;37.716;-122.060;2023-10-19T01:14:39;99578.31;;;32.13;24.23
51053;BME280;37093;37.716;-122.060;2023-10-19T01:17:08;99579.72;;;31.97;23.75
51053;BME280;37093;37.716;-122.060;2023-10-19T01:19:36;99579.05;;;32.19;23.83
51053;BME280;37093;37.716;-122.060;2023-10-19T01:22:05;99578.90;;;32.12;24.16
51053;BME280;37093;37.716;-122.060;2023-10-19T01:24:33;99577.19;;;31.86;24.49
51053;BME280;37093;37.716;-122.060;2023-10-19T01:27:02;99575.50;;;31.58;24.11
51053;BME280;37093;37.716;-122.060;2023-10-19T01:29:30;99575.42;;;31.99;24.50
51053;BME280;37093;37.716;-122.060;2023-10-19T01:31:59;99576.39;;;31.54;24.57
51053;BME280;37093;37.716;-122.060;2023-10-19T01:34:27;99575.26;;;31.45;24.37
51053;BME280;37093;37.716;-122.060;2023-10-19T01:36:55;99576.00;;;31.52;24.38
51053;BME280;37093;37.716;-122.060;2023-10-19T01:39:24;99575.18;;;31.11;24.38
51053;BME280;37093;37.716;-122.060;2023-10-19T01:41:52;99575.13;;;31.32;24.37
51053;BME280;37093;37.716;-122.060;2023-10-19T01:44:20;99572.91;;;31.57;24.54
51053;BME280;37093;37.716;-122.060;2023-10-19T01:46:49;99574.88;;;31.32;24.46
51053;BME280;37093;37.716;-122.060;2023-10-19T01:49:17;99574.24;;;31.30;24.76
51053;BME280;37093;37.716;-122.060;2023-10-19T01:51:46;99576.58;;;31.33;24.92
51053;BME280;37093;37.716;-122.060;2023-10-19T01:54:14;99576.56;;;31.48;24.36
51053;BME280;37093;37.716;-122.060;2023-10-19T01:56:43;99580.67;;;31.54;24.85
51053;BME280;37093;37.716;-122.060;2023-10-19T01:59:11;99580.47;;;31.37;24.70
51053;BME280;37093;37.716;-122.060;2023-10-19T02:01:40;99582.04;;;30.97;24.89
51053;BME280;37093;37.716;-122.060;2023-10-19T02:04:08;99582.25;;;30.69;24.82
51053;BME280;37093;37.716;-122.060;2023-10-19T02:06:36;99586.86;;;31.02;24.90
51053;BME280;37093;37.716;-122.060;2023-10-19T02:09:06;99592.04;;;30.70;25.48
51053;BME280;37093;37.716;-122.060;2023-10-19T02:11:34;99592.12;;;30.62;25.54
51053;BME280;37093;37.716;-122.060;2023-10-19T02:14:03;99595.62;;;30.47;25.46
51053;BME280;37093;37.716;-122.060;2023-10-19T02:16:32;99592.62;;;30.62;25.42
51053;BME280;37093;37.716;-122.060;2023-10-19T02:19:01;99598.93;;;30.18;25.97
51053;BME280;37093;37.716;-122.060;2023-10-19T02:21:29;99597.92;;;29.65;26.06
51053;BME280;37093;37.716;-122.060;2023-10-19T02:23:58;99597.81;;;29.92;26.23
51053;BME280;37093;37.716;-122.060;2023-10-19T02:26:26;99599.62;;;29.84;26.14
51053;BME280;37093;37.716;-122.060;2023-10-19T02:28:55;99599.24;;;29.94;26.12
51053;BME280;37093;37.716;-122.060;2023-10-19T02:31:24;99599.43;;;29.60;26.14
51053;BME280;37093;37.716;-122.060;2023-10-19T02:33:54;99603.19;;;29.48;26.17
51053;BME280;37093;37.716;-122.060;2023-10-19T02:36:22;99600.51;;;29.83;26.19
51053;BME280;37093;37.716;-122.060;2023-10-19T02:38:50;99603.97;;;29.60;26.16
51053;BME280;37093;37.716;-122.060;2023-10-19T02:41:19;99607.32;;;29.51;26.24
51053;BME280;37093;37.716;-122.060;2023-10-19T02:43:48;99610.40;;;29.30;26.63
51053;BME280;37093;37.716;-122.060;2023-10-19T02:46:16;99613.46;;;29.18;26.87
51053;BME280;37093;37.716;-122.060;2023-10-19T02:48:44;99615.97;;;28.91;26.99
51053;BME280;37093;37.716;-122.060;2023-10-19T02:51:13;99615.04;;;29.12;27.07
51053;BME280;37093;37.716;-122.060;2023-10-19T02:53:41;99618.13;;;29.30;26.81
51053;BME280;37093;37.716;-122.060;2023-10-19T02:56:12;99616.82;;;28.92;26.99
51053;BME280;37093;37.716;-122.060;2023-10-19T02:58:43;99616.85;;;29.18;27.01
51053;BME280;37093;37.716;-122.060;2023-10-19T03:01:14;99618.43;;;29.10;27.11
51053;BME280;37093;37.716;-122.060;2023-10-19T03:03:42;99618.66;;;28.87;26.85
51053;BME280;37093;37.716;-122.060;2023-10-19T03:06:10;99620.65;;;29.09;26.69
51053;BME280;37093;37.716;-122.060;2023-10-19T03:08:39;99622.66;;;29.19;26.87
51053;BME280;37093;37.716;-122.060;2023-10-19T03:11:07;99622.19;;;28.49;27.11
51053;BME280;37093;37.716;-122.060;2023-10-19T03:13:36;99620.80;;;29.00;26.94
51053;BME280;37093;37.716;-122.060;2023-10-19T03:16:04;99627.70;;;27.91;28.09
51053;BME280;37093;37.716;-122.060;2023-10-19T03:18:33;99631.57;;;27.97;28.17
51053;BME280;37093;37.716;-122.060;2023-10-19T03:21:02;99628.35;;;27.96;27.80
51053;BME280;37093;37.716;-122.060;2023-10-19T03:23:30;99633.91;;;28.01;27.95
51053;BME280;37093;37.716;-122.060;2023-10-19T03:25:59;99638.11;;;27.90;28.08
51053;BME280;37093;37.716;-122.060;2023-10-19T03:28:27;99642.18;;;27.86;28.15
51053;BME280;37093;37.716;-122.060;2023-10-19T03:30:56;99645.34;;;28.44;27.90
51053;BME280;37093;37.716;-122.060;2023-10-19T03:33:24;99645.32;;;27.94;27.97
51053;BME280;37093;37.716;-122.060;2023-10-19T03:35:53;99646.74;;;27.43;28.58
51053;BME280;37093;37.716;-122.060;2023-10-19T03:38:21;99650.04;;;28.04;28.22
51053;BME280;37093;37.716;-122.060;2023-10-19T03:40:50;99652.97;;;27.84;27.87
51053;BME280;37093;37.716;-122.060;2023-10-19T03:43:19;99654.65;;;27.91;27.80
51053;BME280;37093;37.716;-122.060;2023-10-19T03:45:48;99652.06;;;27.97;27.80
51053;BME280;37093;37.716;-122.060;2023-10-19T03:48:17;99654.31;;;27.49;28.01
51053;BME280;37093;37.716;-122.060;2023-10-19T03:50:46;99654.54;;;26.64;29.60
51053;BME280;37093;37.716;-122.060;2023-10-19T03:53:18;99658.09;;;27.22;28.78
51053;BME280;37093;37.716;-122.060;2023-10-19T03:55:46;99657.62;;;27.26;28.62
51053;BME280;37093;37.716;-122.060;2023-10-19T03:58:14;99658.18;;;27.25;28.45
51053;BME280;37093;37.716;-122.060;2023-10-19T04:00:44;99660.01;;;27.30;28.63
51053;BME280;37093;37.716;-122.060;2023-10-19T04:03:12;99664.63;;;27.26;28.77
51053;BME280;37093;37.716;-122.060;2023-10-19T04:05:41;99666.46;;;26.67;29.40
51053;BME280;37093;37.716;-122.060;2023-10-19T04:08:09;99670.85;;;27.04;28.82
51053;BME280;37093;37.716;-122.060;2023-10-19T04:10:38;99671.33;;;27.05;28.60
51053;BME280;37093;37.716;-122.060;2023-10-19T04:13:06;99672.69;;;26.35;29.50
51053;BME280;37093;37.716;-122.060;2023-10-19T04:15:35;99677.95;;;26.27;29.56
51053;BME280;37093;37.716;-122.060;2023-10-19T04:18:04;99680.80;;;27.00;29.08
51053;BME280;37093;37.716;-122.060;2023-10-19T04:20:33;99684.18;;;26.46;29.29
51053;BME280;37093;37.716;-122.060;2023-10-19T04:23:02;99686.91;;;26.75;29.56
51053;BME280;37093;37.716;-122.060;2023-10-19T04:25:30;99693.64;;;26.59;29.72
51053;BME280;37093;37.716;-122.060;2023-10-19T04:27:59;99692.80;;;26.92;29.37
51053;BME280;37093;37.716;-122.060;2023-10-19T04:30:27;99698.45;;;26.64;29.51
51053;BME280;37093;37.716;-122.060;2023-10-19T04:32:55;99696.58;;;26.89;29.26
51053;BME280;37093;37.716;-122.060;2023-10-19T04:35:24;99700.69;;;26.93;29.23
51053;BME280;37093;37.716;-122.060;2023-10-19T04:37:53;99704.77;;;26.22;29.55
51053;BME280;37093;37.716;-122.060;2023-10-19T04:40:22;99709.13;;;26.22;29.76
51053;BME280;37093;37.716;-122.060;2023-10-19T04:42:52;99708.14;;;26.34;29.97
51053;BME280;37093;37.716;-122.060;2023-10-19T04:45:21;99708.30;;;26.47;29.63
51053;BME280;37093;37.716;-122.060;2023-10-19T04:47:51;99708.98;;;26.54;29.16
51053;BME280;37093;37.716;-122.060;2023-10-19T04:50:20;99713.08;;;26.73;28.93
51053;BME280;37093;37.716;-122.060;2023-10-19T04:52:48;99714.25;;;26.85;28.63
51053;BME280;37093;37.716;-122.060;2023-10-19T04:55:17;99717.33;;;26.58;29.10
51053;BME280;37093;37.716;-122.060;2023-10-19T04:57:45;99716.48;;;26.43;29.11
51053;BME280;37093;37.716;-122.060;2023-10-19T05:00:15;99723.93;;;26.10;29.46
51053;BME280;37093;37.716;-122.060;2023-10-19T05:02:43;99724.75;;;26.27;29.66
51053;BME280;37093;37.716;-122.060;2023-10-19T05:05:11;99725.01;;;25.90;29.86
51053;BME280;37093;37.716;-122.060;2023-10-19T05:07:40;99723.34;;;26.05;30.32
51053;BME280;37093;37.716;-122.060;2023-10-19T05:10:09;99720.50;;;25.72;30.28
51053;BME280;37093;37.716;-122.060;2023-10-19T05:12:37;99718.12;;;26.17;30.08
51053;BME280;37093;37.716;-122.060;2023-10-19T05:15:07;99715.77;;;25.79;30.53
51053;BME280;37093;37.716;-122.060;2023-10-19T05:17:35;99714.96;;;26.00;30.55
51053;BME280;37093;37.716;-122.060;2023-10-19T05:20:05;99713.96;;;25.91;30.68
51053;BME280;37093;37.716;-122.060;2023-10-19T05:22:33;99714.55;;;25.94;30.48
51053;BME280;37093;37.716;-122.060;2023-10-19T05:25:02;99714.76;;;25.91;30.25
51053;BME280;37093;37.716;-122.060;2023-10-19T05:27:30;99713.15;;;26.23;30.22
51053;BME280;37093;37.716;-122.060;2023-10-19T05:30:00;99712.14;;;26.05;30.44
51053;BME280;37093;37.716;-122.060;2023-10-19T05:32:28;99715.03;;;26.03;30.56
51053;BME280;37093;37.716;-122.060;2023-10-19T05:34:56;99720.09;;;26.01;30.80
51053;BME280;37093;37.716;-122.060;2023-10-19T05:37:25;99721.56;;;25.89;31.11
51053;BME280;37093;37.716;-122.060;2023-10-19T05:39:53;99719.74;;;25.72;31.28
51053;BME280;37093;37.716;-122.060;2023-10-19T05:42:22;99723.38;;;25.52;31.55
51053;BME280;37093;37.716;-122.060;2023-10-19T05:44:50;99724.19;;;25.69;31.20
51053;BME280;37093;37.716;-122.060;2023-10-19T05:47:20;99721.57;;;26.09;31.22
51053;BME280;37093;37.716;-122.060;2023-10-19T05:49:48;99725.54;;;26.08;31.20
51053;BME280;37093;37.716;-122.060;2023-10-19T05:52:17;99727.12;;;25.94;31.05
51053;BME280;37093;37.716;-122.060;2023-10-19T05:54:45;99728.87;;;25.77;30.91
51053;BME280;37093;37.716;-122.060;2023-10-19T05:57:14;99731.02;;;25.49;31.52
51053;BME280;37093;37.716;-122.060;2023-10-19T05:59:42;99730.75;;;25.81;31.35
51053;BME280;37093;37.716;-122.060;2023-10-19T06:02:10;99734.38;;;25.68;31.51
51053;BME280;37093;37.716;-122.060;2023-10-19T06:04:39;99735.08;;;26.01;31.39
51053;BME280;37093;37.716;-122.060;2023-10-19T06:07:07;99734.82;;;24.98;32.38
51053;BME280;37093;37.716;-122.060;2023-10-19T06:09:36;99738.60;;;25.38;31.21
51053;BME280;37093;37.716;-122.060;2023-10-19T06:12:05;99739.06;;;25.55;30.99
51053;BME280;37093;37.716;-122.060;2023-10-19T06:14:33;99738.99;;;25.58;30.97
51053;BME280;37093;37.716;-122.060;2023-10-19T06:17:02;99735.45;;;25.81;30.89
51053;BME280;37093;37.716;-122.060;2023-10-19T06:19:30;99731.83;;;25.84;31.08
51053;BME280;37093;37.716;-122.060;2023-10-19T06:21:58;99733.36;;;25.73;31.15
51053;BME280;37093;37.716;-122.060;2023-10-19T06:24:27;99735.29;;;25.16;31.63
51053;BME280;37093;37.716;-122.060;2023-10-19T06:26:56;99732.94;;;25.60;31.58
51053;BME280;37093;37.716;-122.060;2023-10-19T06:29:24;99730.65;;;25.34;31.53
51053;BME280;37093;37.716;-122.060;2023-10-19T06:31:53;99730.57;;;25.29;31.71
51053;BME280;37093;37.716;-122.060;2023-10-19T06:34:21;99726.67;;;25.02;32.04
51053;BME280;37093;37.716;-122.060;2023-10-19T06:36:50;99730.72;;;24.94;32.43
51053;BME280;37093;37.716;-122.060;2023-10-19T06:39:18;99731.21;;;24.59;33.05
51053;BME280;37093;37.716;-122.060;2023-10-19T06:41:47;99729.93;;;24.97;31.81
51053;BME280;37093;37.716;-122.060;2023-10-19T06:44:15;99730.62;;;25.38;31.82
51053;BME280;37093;37.716;-122.060;2023-10-19T06:46:44;99731.33;;;25.06;32.07
51053;BME280;37093;37.716;-122.060;2023-10-19T06:49:13;99727.23;;;24.97;32.42
51053;BME280;37093;37.716;-122.060;2023-10-19T06:51:41;99732.57;;;24.81;32.62
51053;BME280;37093;37.716;-122.060;2023-10-19T06:54:09;99730.34;;;24.60;32.75
51053;BME280;37093;37.716;-122.060;2023-10-19T06:56:38;99727.89;;;24.84;32.48
51053;BME280;37093;37.716;-122.060;2023-10-19T06:59:06;99724.84;;;25.03;32.04
51053;BME280;37093;37.716;-122.060;2023-10-19T07:01:15;99724.05;;;24.20;32.37
51053;BME280;37093;37.716;-122.060;2023-10-19T07:03:43;99723.07;;;23.87;31.46
51053;BME280;37093;37.716;-122.060;2023-10-19T07:06:11;99725.92;;;25.44;30.68
51053;BME280;37093;37.716;-122.060;2023-10-19T07:08:39;99726.16;;;25.44;31.48
51053;BME280;37093;37.716;-122.060;2023-10-19T07:11:08;99725.98;;;24.87;32.41
51053;BME280;37093;37.716;-122.060;2023-10-19T07:13:36;99725.73;;;24.64;32.73
51053;BME280;37093;37.716;-122.060;2023-10-19T07:16:05;99726.05;;;23.89;34.22
51053;BME280;37093;37.716;-122.060;2023-10-19T07:18:33;99726.42;;;23.73;34.75
51053;BME280;37093;37.716;-122.060;2023-10-19T07:21:02;99726.35;;;23.83;34.26
51053;BME280;37093;37.716;-122.060;2023-10-19T07:23:30;99720.34;;;24.49;33.58
51053;BME280;37093;37.716;-122.060;2023-10-19T07:25:59;99720.59;;;24.28;33.55
51053;BME280;37093;37.716;-122.060;2023-10-19T07:28:28;99721.60;;;24.73;33.45
51053;BME280;37093;37.716;-122.060;2023-10-19T07:30:57;99727.92;;;24.48;32.90
51053;BME280;37093;37.716;-122.060;2023-10-19T07:33:26;99729.87;;;24.61;32.78
51053;BME280;37093;37.716;-122.060;2023-10-19T07:35:54;99727.34;;;24.74;32.54
51053;BME280;37093;37.716;-122.060;2023-10-19T07:38:23;99717.90;;;24.86;32.36
51053;BME280;37093;37.716;-122.060;2023-10-19T07:40:51;99718.43;;;24.86;32.49
51053;BME280;37093;37.716;-122.060;2023-10-19T07:43:20;99720.67;;;24.87;32.56
51053;BME280;37093;37.716;-122.060;2023-10-19T07:45:48;99721.36;;;24.82;32.45
51053;BME280;37093;37.716;-122.060;2023-10-19T07:48:17;99720.05;;;24.84;32.27
51053;BME280;37093;37.716;-122.060;2023-10-19T07:50:45;99720.56;;;23.88;33.42
51053;BME280;37093;37.716;-122.060;2023-10-19T07:53:13;99719.13;;;24.59;32.54
51053;BME280;37093;37.716;-122.060;2023-10-19T07:55:42;99717.72;;;24.07;33.58
51053;BME280;37093;37.716;-122.060;2023-10-19T07:58:10;99718.37;;;24.37;33.34
51053;BME280;37093;37.716;-122.060;2023-10-19T08:00:39;99720.00;;;24.57;32.89
51053;BME280;37093;37.716;-122.060;2023-10-19T08:03:08;99723.36;;;24.46;32.93
51053;BME280;37093;37.716;-122.060;2023-10-19T08:05:37;99727.72;;;24.40;32.80
51053;BME280;37093;37.716;-122.060;2023-10-19T08:08:05;99729.90;;;24.54;32.68
51053;BME280;37093;37.716;-122.060;2023-10-19T08:10:34;99732.48;;;24.62;32.53
51053;BME280;37093;37.716;-122.060;2023-10-19T08:13:02;99734.87;;;23.90;34.98
51053;BME280;37093;37.716;-122.060;2023-10-19T08:15:31;99742.12;;;24.33;34.02
51053;BME280;37093;37.716;-122.060;2023-10-19T08:17:59;99745.64;;;24.36;33.90
51053;BME280;37093;37.716;-122.060;2023-10-19T08:20:27;99740.53;;;24.04;33.87
51053;BME280;37093;37.716;-122.060;2023-10-19T08:22:56;99743.50;;;24.30;34.27
51053;BME280;37093;37.716;-122.060;2023-10-19T08:25:25;99745.46;;;23.91;34.88
51053;BME280;37093;37.716;-122.060;2023-10-19T08:27:55;99743.31;;;23.62;35.32
51053;BME280;37093;37.716;-122.060;2023-10-19T08:30:24;99742.24;;;23.90;34.65
51053;BME280;37093;37.716;-122.060;2023-10-19T08:32:52;99744.19;;;23.95;34.62
51053;BME280;37093;37.716;-122.060;2023-10-19T08:35:21;99743.96;;;23.83;33.59
51053;BME280;37093;37.716;-122.060;2023-10-19T08:37:50;99741.00;;;24.09;33.77
51053;BME280;37093;37.716;-122.060;2023-10-19T08:40:19;99745.33;;;24.30;34.21
51053;BME280;37093;37.716;-122.060;2023-10-19T08:42:47;99744.30;;;23.88;34.07
51053;BME280;37093;37.716;-122.060;2023-10-19T08:45:16;99743.08;;;24.01;34.56
51053;BME280;37093;37.716;-122.060;2023-10-19T08:47:54;99743.96;;;24.01;34.60
51053;BME280;37093;37.716;-122.060;2023-10-19T08:50:24;99741.48;;;23.76;35.14
51053;BME280;37093;37.716;-122.060;2023-10-19T08:52:54;99740.24;;;23.72;34.86
51053;BME280;37093;37.716;-122.060;2023-10-19T08:55:23;99736.13;;;23.56;35.33
51053;BME280;37093;37.716;-122.060;2023-10-19T08:57:52;99733.10;;;23.89;35.65
51053;BME280;37093;37.716;-122.060;2023-10-19T09:00:20;99730.16;;;23.27;36.30
51053;BME280;37093;37.716;-122.060;2023-10-19T09:02:49;99731.84;;;23.26;35.55
51053;BME280;37093;37.716;-122.060;2023-10-19T09:05:17;99729.21;;;23.72;35.17
51053;BME280;37093;37.716;-122.060;2023-10-19T09:07:46;99728.30;;;23.35;35.50
51053;BME280;37093;37.716;-122.060;2023-10-19T09:10:17;99726.75;;;23.25;36.21
51053;BME280;37093;37.716;-122.060;2023-10-19T09:12:48;99728.79;;;23.01;36.03
51053;BME280;37093;37.716;-122.060;2023-10-19T09:15:27;99726.97;;;23.48;35.65
51053;BME280;37093;37.716;-122.060;2023-10-19T09:17:55;99732.29;;;23.51;36.85
51053;BME280;37093;37.716;-122.060;2023-10-19T09:20:23;99731.57;;;22.79;36.87
51053;BME280;37093;37.716;-122.060;2023-10-19T09:22:51;99731.16;;;23.40;36.82
51053;BME280;37093;37.716;-122.060;2023-10-19T09:25:20;99730.30;;;23.07;36.91
51053;BME280;37093;37.716;-122.060;2023-10-19T09:27:48;99732.96;;;23.33;37.60
51053;BME280;37093;37.716;-122.060;2023-10-19T09:30:17;99734.05;;;23.55;37.05
51053;BME280;37093;37.716;-122.060;2023-10-19T09:32:48;99731.56;;;23.31;37.68
51053;BME280;37093;37.716;-122.060;2023-10-19T09:35:18;99732.36;;;22.84;37.11
51053;BME280;37093;37.716;-122.060;2023-10-19T09:37:46;99732.65;;;23.14;36.70
51053;BME280;37093;37.716;-122.060;2023-10-19T09:40:15;99731.02;;;23.03;35.98
51053;BME280;37093;37.716;-122.060;2023-10-19T09:42:44;99736.09;;;23.07;36.80
51053;BME280;37093;37.716;-122.060;2023-10-19T09:45:16;99735.31;;;23.12;36.04
51053;BME280;37093;37.716;-122.060;2023-10-19T09:47:50;99736.58;;;23.08;36.78
51053;BME280;37093;37.716;-122.060;2023-10-19T09:50:18;99729.69;;;23.27;35.30
51053;BME280;37093;37.716;-122.060;2023-10-19T09:52:47;99732.04;;;23.67;35.16
51053;BME280;37093;37.716;-122.060;2023-10-19T09:55:22;99730.03;;;23.18;35.46
51053;BME280;37093;37.716;-122.060;2023-10-19T09:57:55;99733.40;;;23.08;35.84
51053;BME280;37093;37.716;-122.060;2023-10-19T10:00:24;99734.79;;;23.31;35.23
51053;BME280;37093;37.716;-122.060;2023-10-19T10:02:52;99731.68;;;23.43;35.69
51053;BME280;37093;37.716;-122.060;2023-10-19T10:05:53;99728.73;;;23.15;35.63
51053;BME280;37093;37.716;-122.060;2023-10-19T10:08:37;99723.53;;;23.68;35.44
51053;BME280;37093;37.716;-122.060;2023-10-19T10:11:18;99720.03;;;23.23;35.62
51053;BME280;37093;37.716;-122.060;2023-10-19T10:13:47;99719.83;;;23.23;35.73
51053;BME280;37093;37.716;-122.060;2023-10-19T10:16:17;99723.50;;;23.27;35.65
51053;BME280;37093;37.716;-122.060;2023-10-19T10:18:47;99723.61;;;23.85;36.09
51053;BME280;37093;37.716;-122.060;2023-10-19T10:21:18;99719.59;;;23.85;35.89
51053;BME280;37093;37.716;-122.060;2023-10-19T10:23:49;99713.70;;;23.43;35.86
51053;BME280;37093;37.716;-122.060;2023-10-19T10:26:19;99710.20;;;23.04;36.07
51053;BME280;37093;37.716;-122.060;2023-10-19T10:28:49;99708.05;;;23.66;35.86
51053;BME280;37093;37.716;-122.060;2023-10-19T10:31:40;99709.99;;;22.71;37.25
51053;BME280;37093;37.716;-122.060;2023-10-19T10:34:10;99708.79;;;23.00;37.12
51053;BME280;37093;37.716;-122.060;2023-10-19T10:36:58;99705.62;;;23.06;36.10
51053;BME280;37093;37.716;-122.060;2023-10-19T10:39:27;99706.51;;;22.92;37.15
51053;BME280;37093;37.716;-122.060;2023-10-19T10:41:57;99707.02;;;22.82;36.90
51053;BME280;37093;37.716;-122.060;2023-10-19T10:44:42;99707.35;;;23.08;36.34
51053;BME280;37093;37.716;-122.060;2023-10-19T10:47:11;99708.11;;;23.57;35.75
51053;BME280;37093;37.716;-122.060;2023-10-19T10:49:49;99704.95;;;23.97;35.44
51053;BME280;37093;37.716;-122.060;2023-10-19T10:52:36;99706.12;;;23.45;35.64
51053;BME280;37093;37.716;-122.060;2023-10-19T10:55:08;99706.07;;;23.79;35.28
51053;BME280;37093;37.716;-122.060;2023-10-19T10:57:37;99706.38;;;23.20;36.15
51053;BME280;37093;37.716;-122.060;2023-10-19T11:00:07;99704.12;;;23.45;35.60
51053;BME280;37093;37.716;-122.060;2023-10-19T11:02:37;99704.35;;;23.90;35.83
51053;BME280;37093;37.716;-122.060;2023-10-19T11:05:06;99705.75;;;23.38;36.28
51053;BME280;37093;37.716;-122.060;2023-10-19T11:07:34;99703.43;;;23.17;36.03
51053;BME280;37093;37.716;-122.060;2023-10-19T11:10:03;99705.91;;;23.38;35.79
51053;BME280;37093;37.716;-122.060;2023-10-19T11:12:32;99705.18;;;23.00;35.92
51053;BME280;37093;37.716;-122.060;2023-10-19T11:15:01;99700.21;;;23.39;35.67
51053;BME280;37093;37.716;-122.060;2023-10-19T11:17:30;99699.73;;;23.40;35.82
51053;BME280;37093;37.716;-122.060;2023-10-19T11:20:04;99697.25;;;23.35;35.92
51053;BME280;37093;37.716;-122.060;2023-10-19T11:22:32;99699.23;;;23.47;35.63
51053;BME280;37093;37.716;-122.060;2023-10-19T11:25:19;99699.93;;;23.58;35.87
51053;BME280;37093;37.716;-122.060;2023-10-19T11:27:47;99699.19;;;23.29;35.48
51053;BME280;37093;37.716;-122.060;2023-10-19T11:30:24;99696.95;;;23.22;35.76
51053;BME280;37093;37.716;-122.060;2023-10-19T11:32:53;99697.13;;;23.22;35.68
51053;BME280;37093;37.716;-122.060;2023-10-19T11:35:21;99698.18;;;23.23;35.59
51053;BME280;37093;37.716;-122.060;2023-10-19T11:37:51;99698.13;;;23.36;35.73
51053;BME280;37093;37.716;-122.060;2023-10-19T11:40:21;99701.25;;;22.88;36.26
51053;BME280;37093;37.716;-122.060;2023-10-19T11:42:50;99700.87;;;23.49;35.81
51053;BME280;37093;37.716;-122.060;2023-10-19T11:45:18;99703.54;;;23.22;35.78
51053;BME280;37093;37.716;-122.060;2023-10-19T11:47:47;99710.63;;;23.03;36.17
51053;BME280;37093;37.716;-122.060;2023-10-19T11:50:15;99711.11;;;23.15;36.08
51053;BME280;37093;37.716;-122.060;2023-10-19T11:52:43;99710.63;;;23.22;35.98
51053;BME280;37093;37.716;-122.060;2023-10-19T11:55:12;99709.97;;;23.07;36.54
51053;BME280;37093;37.716;-122.060;2023-10-19T11:57:41;99711.43;;;23.39;35.91
51053;BME280;37093;37.716;-122.060;2023-10-19T12:00:11;99711.24;;;22.81;36.37
51053;BME280;37093;37.716;-122.060;2023-10-19T12:02:40;99714.26;;;22.87;35.95
51053;BME280;37093;37.716;-122.060;2023-10-19T12:05:09;99719.73;;;23.12;36.41
51053;BME280;37093;37.716;-122.060;2023-10-19T12:07:38;99719.81;;;23.13;36.15
51053;BME280;37093;37.716;-122.060;2023-10-19T12:10:09;99721.96;;;22.94;36.95
51053;BME280;37093;37.716;-122.060;2023-10-19T12:12:38;99721.31;;;22.99;37.02
51053;BME280;37093;37.716;-122.060;2023-10-19T12:15:08;99716.74;;;23.05;36.88
51053;BME280;37093;37.716;-122.060;2023-10-19T12:17:36;99717.11;;;22.89;36.49
51053;BME280;37093;37.716;-122.060;2023-10-19T12:20:05;99717.55;;;23.09;36.93
51053;BME280;37093;37.716;-122.060;2023-10-19T12:22:33;99720.79;;;23.23;36.85
51053;BME280;37093;37.716;-122.060;2023-10-19T12:25:02;99724.62;;;23.05;36.95
51053;BME280;37093;37.716;-122.060;2023-10-19T12:27:30;99727.41;;;23.33;36.41
51053;BME280;37093;37.716;-122.060;2023-10-19T12:29:58;99728.54;;;23.36;36.41
51053;BME280;37093;37.716;-122.060;2023-10-19T12:32:27;99728.41;;;23.25;36.79
51053;BME280;37093;37.716;-122.060;2023-10-19T12:34:55;99726.95;;;23.16;37.08
51053;BME280;37093;37.716;-122.060;2023-10-19T12:37:24;99730.50;;;23.03;37.09
51053;BME280;37093;37.716;-122.060;2023-10-19T12:39:52;99729.59;;;23.00;37.71